sensor_id;sensor_type;location;lat;lon;timestamp;temperature;humidity
13488;DHT22;6816;48.506;9.050;2022-11-11T00:00:47;6.80;99.90
13488;DHT22;6816;48.506;9.050;2022-11-11T00:03:47;6.90;99.90
13488;DHT22;6816;48.506;9.050;2022-11-11T00:06:48;6.90;99.90
13488;DHT22;6816;48.506;9.050;2022-11-11T00:09:49;6.90;99.90
13488;DHT22;6816;48.506;9.050;2022-11-11T00:12:49;6.90;99.90
13488;DHT22;6816;48.506;9.050;2022-11-11T00:15:50;6.90;99.90
13488;DHT22;6816;48.506;9.050;2022-11-11T00:18:51;6.90;99.90
13488;DHT22;6816;48.506;9.050;2022-11-11T00:22:20;6.90;99.90
13488;DHT22;6816;48.506;9.050;2022-11-11T00:25:27;7.00;99.90
13488;DHT22;6816;48.506;9.050;2022-11-11T00:28:28;7.10;99.90
13488;DHT22;6816;48.506;9.050;2022-11-11T00:31:28;7.00;99.90
13488;DHT22;6816;48.506;9.050;2022-11-11T00:34:29;7.10;99.90
13488;DHT22;6816;48.506;9.050;2022-11-11T00:37:31;7.10;99.90
13488;DHT22;6816;48.506;9.050;2022-11-11T00:40:32;7.10;99.90
13488;DHT22;6816;48.506;9.050;2022-11-11T00:43:33;7.10;99.90
13488;DHT22;6816;48.506;9.050;2022-11-11T00:46:33;7.20;99.90
13488;DHT22;6816;48.506;9.050;2022-11-11T00:49:52;7.10;99.90
13488;DHT22;6816;48.506;9.050;2022-11-11T00:53:16;7.10;99.90
13488;DHT22;6816;48.506;9.050;2022-11-11T00:56:17;7.10;99.90
13488;DHT22;6816;48.506;9.050;2022-11-11T00:59:18;7.10;99.90
13488;DHT22;6816;48.506;9.050;2022-11-11T01:02:18;7.10;99.90
13488;DHT22;6816;48.506;9.050;2022-11-11T01:05:19;7.10;99.90
13488;DHT22;6816;48.506;9.050;2022-11-11T01:08:20;7.10;99.90
13488;DHT22;6816;48.506;9.050;2022-11-11T01:11:24;7.10;99.90
13488;DHT22;6816;48.506;9.050;2022-11-11T01:14:24;7.20;99.90
13488;DHT22;6816;48.506;9.050;2022-11-11T01:17:25;7.10;99.90
13488;DHT22;6816;48.506;9.050;2022-11-11T01:20:25;7.20;99.90
13488;DHT22;6816;48.506;9.050;2022-11-11T01:23:27;7.20;99.90
13488;DHT22;6816;48.506;9.050;2022-11-11T01:26:28;7.20;99.90
13488;DHT22;6816;48.506;9.050;2022-11-11T01:29:28;7.20;99.90
13488;DHT22;6816;48.506;9.050;2022-11-11T01:32:29;7.20;99.90
13488;DHT22;6816;48.506;9.050;2022-11-11T01:35:30;7.20;99.90
13488;DHT22;6816;48.506;9.050;2022-11-11T01:38:30;7.20;99.90
13488;DHT22;6816;48.506;9.050;2022-11-11T01:41:33;7.20;99.90
13488;DHT22;6816;48.506;9.050;2022-11-11T01:44:45;7.20;99.90
13488;DHT22;6816;48.506;9.050;2022-11-11T01:47:47;7.20;99.90
13488;DHT22;6816;48.506;9.050;2022-11-11T01:51:11;7.30;99.90
13488;DHT22;6816;48.506;9.050;2022-11-11T01:54:18;7.20;99.90
13488;DHT22;6816;48.506;9.050;2022-11-11T02:00:46;7.20;99.90
13488;DHT22;6816;48.506;9.050;2022-11-11T02:03:48;7.20;99.90
13488;DHT22;6816;48.506;9.050;2022-11-11T02:07:09;7.20;99.90
13488;DHT22;6816;48.506;9.050;2022-11-11T02:10:10;7.20;99.90
13488;DHT22;6816;48.506;9.050;2022-11-11T02:13:13;7.20;99.90
13488;DHT22;6816;48.506;9.050;2022-11-11T02:16:32;7.10;99.90
13488;DHT22;6816;48.506;9.050;2022-11-11T02:19:49;7.10;99.90
13488;DHT22;6816;48.506;9.050;2022-11-11T02:26:03;7.10;99.90
13488;DHT22;6816;48.506;9.050;2022-11-11T02:29:12;7.00;99.90
13488;DHT22;6816;48.506;9.050;2022-11-11T02:32:14;7.00;99.90
13488;DHT22;6816;48.506;9.050;2022-11-11T02:35:24;7.00;99.90
13488;DHT22;6816;48.506;9.050;2022-11-11T02:38:25;7.00;99.90
13488;DHT22;6816;48.506;9.050;2022-11-11T02:41:26;7.00;99.90
13488;DHT22;6816;48.506;9.050;2022-11-11T02:44:45;7.00;99.90
13488;DHT22;6816;48.506;9.050;2022-11-11T02:47:46;7.00;99.90
13488;DHT22;6816;48.506;9.050;2022-11-11T02:50:46;6.90;99.90
13488;DHT22;6816;48.506;9.050;2022-11-11T02:53:47;6.90;99.90
13488;DHT22;6816;48.506;9.050;2022-11-11T02:56:47;6.90;99.90
13488;DHT22;6816;48.506;9.050;2022-11-11T03:00:07;6.80;99.90
13488;DHT22;6816;48.506;9.050;2022-11-11T03:03:09;6.80;99.90
13488;DHT22;6816;48.506;9.050;2022-11-11T03:06:09;6.80;99.90
13488;DHT22;6816;48.506;9.050;2022-11-11T03:09:10;6.80;99.90
13488;DHT22;6816;48.506;9.050;2022-11-11T03:12:11;6.80;99.90
13488;DHT22;6816;48.506;9.050;2022-11-11T03:15:11;6.80;99.90
13488;DHT22;6816;48.506;9.050;2022-11-11T03:18:12;6.70;99.90
13488;DHT22;6816;48.506;9.050;2022-11-11T03:21:12;6.70;99.90
13488;DHT22;6816;48.506;9.050;2022-11-11T03:24:13;6.70;99.90
13488;DHT22;6816;48.506;9.050;2022-11-11T03:27:14;6.70;99.90
13488;DHT22;6816;48.506;9.050;2022-11-11T03:30:15;6.70;99.90
13488;DHT22;6816;48.506;9.050;2022-11-11T03:33:16;6.70;99.90
13488;DHT22;6816;48.506;9.050;2022-11-11T03:36:17;6.70;99.90
13488;DHT22;6816;48.506;9.050;2022-11-11T03:39:17;6.70;99.90
13488;DHT22;6816;48.506;9.050;2022-11-11T03:42:18;6.60;99.90
13488;DHT22;6816;48.506;9.050;2022-11-11T03:45:19;6.70;99.90
13488;DHT22;6816;48.506;9.050;2022-11-11T03:48:20;6.60;99.90
13488;DHT22;6816;48.506;9.050;2022-11-11T03:51:20;6.60;99.90
13488;DHT22;6816;48.506;9.050;2022-11-11T03:54:21;6.60;99.90
13488;DHT22;6816;48.506;9.050;2022-11-11T03:57:22;6.50;99.90
13488;DHT22;6816;48.506;9.050;2022-11-11T04:00:32;6.60;99.90
13488;DHT22;6816;48.506;9.050;2022-11-11T04:03:33;6.50;99.90
13488;DHT22;6816;48.506;9.050;2022-11-11T04:06:52;6.50;99.90
13488;DHT22;6816;48.506;9.050;2022-11-11T04:10:11;6.50;99.90
13488;DHT22;6816;48.506;9.050;2022-11-11T04:13:24;6.40;99.90
13488;DHT22;6816;48.506;9.050;2022-11-11T04:16:43;6.40;99.90
13488;DHT22;6816;48.506;9.050;2022-11-11T04:19:43;6.40;99.90
13488;DHT22;6816;48.506;9.050;2022-11-11T04:23:03;6.40;99.90
13488;DHT22;6816;48.506;9.050;2022-11-11T04:26:03;6.40;99.90
13488;DHT22;6816;48.506;9.050;2022-11-11T04:29:04;6.30;99.90
13488;DHT22;6816;48.506;9.050;2022-11-11T04:32:23;6.30;99.90
13488;DHT22;6816;48.506;9.050;2022-11-11T04:35:37;6.30;99.90
13488;DHT22;6816;48.506;9.050;2022-11-11T04:38:38;6.20;99.90
13488;DHT22;6816;48.506;9.050;2022-11-11T04:41:57;6.30;99.90
13488;DHT22;6816;48.506;9.050;2022-11-11T04:44:59;6.20;99.90
13488;DHT22;6816;48.506;9.050;2022-11-11T04:48:18;6.20;99.90
13488;DHT22;6816;48.506;9.050;2022-11-11T04:51:20;6.20;99.90
13488;DHT22;6816;48.506;9.050;2022-11-11T04:54:40;6.20;99.90
13488;DHT22;6816;48.506;9.050;2022-11-11T04:58:01;6.10;99.90
13488;DHT22;6816;48.506;9.050;2022-11-11T05:01:02;6.20;99.90
13488;DHT22;6816;48.506;9.050;2022-11-11T05:04:02;6.10;99.90
13488;DHT22;6816;48.506;9.050;2022-11-11T05:07:03;6.10;99.90
13488;DHT22;6816;48.506;9.050;2022-11-11T05:10:23;6.00;99.90
13488;DHT22;6816;48.506;9.050;2022-11-11T05:13:23;6.00;99.90
13488;DHT22;6816;48.506;9.050;2022-11-11T05:16:51;6.00;99.90
13488;DHT22;6816;48.506;9.050;2022-11-11T05:20:10;6.00;99.90
13488;DHT22;6816;48.506;9.050;2022-11-11T05:23:29;6.00;99.90
13488;DHT22;6816;48.506;9.050;2022-11-11T05:26:50;6.00;99.90
13488;DHT22;6816;48.506;9.050;2022-11-11T05:29:50;5.90;99.90
13488;DHT22;6816;48.506;9.050;2022-11-11T05:32:53;5.90;99.90
13488;DHT22;6816;48.506;9.050;2022-11-11T05:35:55;5.90;99.90
13488;DHT22;6816;48.506;9.050;2022-11-11T05:38:55;5.90;99.90
13488;DHT22;6816;48.506;9.050;2022-11-11T05:41:56;5.90;99.90
13488;DHT22;6816;48.506;9.050;2022-11-11T05:44:57;5.90;99.90
13488;DHT22;6816;48.506;9.050;2022-11-11T05:48:01;5.80;99.90
13488;DHT22;6816;48.506;9.050;2022-11-11T05:51:02;5.90;99.90
13488;DHT22;6816;48.506;9.050;2022-11-11T05:54:03;5.80;99.90
13488;DHT22;6816;48.506;9.050;2022-11-11T05:57:03;5.80;99.90
13488;DHT22;6816;48.506;9.050;2022-11-11T06:00:04;5.80;99.90
13488;DHT22;6816;48.506;9.050;2022-11-11T06:03:05;5.80;99.90
13488;DHT22;6816;48.506;9.050;2022-11-11T06:06:06;5.90;99.90
13488;DHT22;6816;48.506;9.050;2022-11-11T06:09:06;5.80;99.90
13488;DHT22;6816;48.506;9.050;2022-11-11T06:12:07;5.80;99.90
13488;DHT22;6816;48.506;9.050;2022-11-11T06:15:08;5.80;99.90
13488;DHT22;6816;48.506;9.050;2022-11-11T06:18:09;5.80;99.90
13488;DHT22;6816;48.506;9.050;2022-11-11T06:21:09;5.80;99.90
13488;DHT22;6816;48.506;9.050;2022-11-11T06:24:10;5.80;99.90
13488;DHT22;6816;48.506;9.050;2022-11-11T06:27:11;5.80;99.90
13488;DHT22;6816;48.506;9.050;2022-11-11T06:30:11;5.80;99.90
13488;DHT22;6816;48.506;9.050;2022-11-11T06:33:12;5.80;99.90
13488;DHT22;6816;48.506;9.050;2022-11-11T06:36:15;5.70;99.90
13488;DHT22;6816;48.506;9.050;2022-11-11T06:39:16;5.80;99.90
13488;DHT22;6816;48.506;9.050;2022-11-11T06:42:17;5.80;99.90
13488;DHT22;6816;48.506;9.050;2022-11-11T06:45:18;5.70;99.90
13488;DHT22;6816;48.506;9.050;2022-11-11T06:48:19;5.70;99.90
13488;DHT22;6816;48.506;9.050;2022-11-11T06:51:20;5.70;99.90
13488;DHT22;6816;48.506;9.050;2022-11-11T06:54:21;5.90;99.90
13488;DHT22;6816;48.506;9.050;2022-11-11T06:57:23;5.70;99.90
13488;DHT22;6816;48.506;9.050;2022-11-11T07:00:23;5.70;99.90
13488;DHT22;6816;48.506;9.050;2022-11-11T07:03:24;5.90;99.90
13488;DHT22;6816;48.506;9.050;2022-11-11T07:06:24;5.70;99.90
13488;DHT22;6816;48.506;9.050;2022-11-11T07:09:25;5.70;99.90
13488;DHT22;6816;48.506;9.050;2022-11-11T07:12:27;5.80;99.90
13488;DHT22;6816;48.506;9.050;2022-11-11T07:15:28;5.80;99.90
13488;DHT22;6816;48.506;9.050;2022-11-11T07:18:28;5.80;99.90
13488;DHT22;6816;48.506;9.050;2022-11-11T07:21:29;5.80;99.90
13488;DHT22;6816;48.506;9.050;2022-11-11T07:24:30;5.80;99.90
13488;DHT22;6816;48.506;9.050;2022-11-11T07:27:30;5.80;99.90
13488;DHT22;6816;48.506;9.050;2022-11-11T07:30:31;6.00;99.90
13488;DHT22;6816;48.506;9.050;2022-11-11T07:33:32;5.90;99.90
13488;DHT22;6816;48.506;9.050;2022-11-11T07:36:33;5.90;99.90
13488;DHT22;6816;48.506;9.050;2022-11-11T07:39:35;5.90;99.90
13488;DHT22;6816;48.506;9.050;2022-11-11T07:42:37;6.10;99.90
13488;DHT22;6816;48.506;9.050;2022-11-11T07:45:38;5.90;99.90
13488;DHT22;6816;48.506;9.050;2022-11-11T07:48:38;6.00;99.90
13488;DHT22;6816;48.506;9.050;2022-11-11T07:51:40;6.00;99.90
13488;DHT22;6816;48.506;9.050;2022-11-11T07:54:40;6.10;99.90
13488;DHT22;6816;48.506;9.050;2022-11-11T07:57:41;6.10;99.90
13488;DHT22;6816;48.506;9.050;2022-11-11T08:00:41;6.10;99.90
13488;DHT22;6816;48.506;9.050;2022-11-11T08:03:42;6.20;99.90
13488;DHT22;6816;48.506;9.050;2022-11-11T08:06:48;6.20;99.90
13488;DHT22;6816;48.506;9.050;2022-11-11T08:09:49;6.40;99.90
13488;DHT22;6816;48.506;9.050;2022-11-11T08:12:53;6.30;99.90
13488;DHT22;6816;48.506;9.050;2022-11-11T08:16:14;6.30;99.90
13488;DHT22;6816;48.506;9.050;2022-11-11T08:19:15;6.40;99.90
13488;DHT22;6816;48.506;9.050;2022-11-11T08:22:15;6.40;99.90
13488;DHT22;6816;48.506;9.050;2022-11-11T08:25:16;6.40;99.90
13488;DHT22;6816;48.506;9.050;2022-11-11T08:28:17;6.50;99.90
13488;DHT22;6816;48.506;9.050;2022-11-11T08:31:17;6.50;99.90
13488;DHT22;6816;48.506;9.050;2022-11-11T08:34:18;6.60;99.90
13488;DHT22;6816;48.506;9.050;2022-11-11T08:37:19;6.80;99.90
13488;DHT22;6816;48.506;9.050;2022-11-11T08:40:21;6.70;99.90
13488;DHT22;6816;48.506;9.050;2022-11-11T08:43:21;6.80;99.90
13488;DHT22;6816;48.506;9.050;2022-11-11T08:46:23;6.90;99.90
13488;DHT22;6816;48.506;9.050;2022-11-11T08:49:24;6.90;99.90
13488;DHT22;6816;48.506;9.050;2022-11-11T08:52:24;6.90;99.90
13488;DHT22;6816;48.506;9.050;2022-11-11T08:55:25;7.10;99.90
13488;DHT22;6816;48.506;9.050;2022-11-11T08:58:26;7.10;99.90
13488;DHT22;6816;48.506;9.050;2022-11-11T09:01:26;7.20;99.90
13488;DHT22;6816;48.506;9.050;2022-11-11T09:04:27;7.30;99.90
13488;DHT22;6816;48.506;9.050;2022-11-11T09:07:27;7.40;99.90
13488;DHT22;6816;48.506;9.050;2022-11-11T09:10:28;7.50;99.90
13488;DHT22;6816;48.506;9.050;2022-11-11T09:13:29;7.60;99.90
13488;DHT22;6816;48.506;9.050;2022-11-11T09:16:29;7.70;99.90
13488;DHT22;6816;48.506;9.050;2022-11-11T09:19:30;7.70;99.90
13488;DHT22;6816;48.506;9.050;2022-11-11T09:22:30;7.80;99.90
13488;DHT22;6816;48.506;9.050;2022-11-11T09:25:31;7.90;99.90
13488;DHT22;6816;48.506;9.050;2022-11-11T09:28:32;8.00;99.90
13488;DHT22;6816;48.506;9.050;2022-11-11T09:31:33;8.10;99.90
13488;DHT22;6816;48.506;9.050;2022-11-11T09:34:33;8.10;99.90
13488;DHT22;6816;48.506;9.050;2022-11-11T09:37:34;8.20;99.90
13488;DHT22;6816;48.506;9.050;2022-11-11T09:43:59;8.30;99.90
13488;DHT22;6816;48.506;9.050;2022-11-11T09:47:24;8.30;99.90
13488;DHT22;6816;48.506;9.050;2022-11-11T09:50:29;8.40;99.90
13488;DHT22;6816;48.506;9.050;2022-11-11T09:53:42;8.50;99.90
13488;DHT22;6816;48.506;9.050;2022-11-11T09:56:44;8.70;99.90
13488;DHT22;6816;48.506;9.050;2022-11-11T09:59:51;8.80;99.90
13488;DHT22;6816;48.506;9.050;2022-11-11T10:02:58;9.00;99.90
13488;DHT22;6816;48.506;9.050;2022-11-11T10:06:18;9.20;99.90
13488;DHT22;6816;48.506;9.050;2022-11-11T10:09:24;9.30;99.90
13488;DHT22;6816;48.506;9.050;2022-11-11T10:12:36;9.40;99.90
13488;DHT22;6816;48.506;9.050;2022-11-11T10:16:05;9.60;99.90
13488;DHT22;6816;48.506;9.050;2022-11-11T10:19:32;9.80;99.90
13488;DHT22;6816;48.506;9.050;2022-11-11T10:22:44;10.00;99.90
13488;DHT22;6816;48.506;9.050;2022-11-11T10:25:54;10.20;99.90
13488;DHT22;6816;48.506;9.050;2022-11-11T10:28:56;10.40;99.90
13488;DHT22;6816;48.506;9.050;2022-11-11T10:32:22;10.60;99.90
13488;DHT22;6816;48.506;9.050;2022-11-11T10:35:26;10.70;99.90
13488;DHT22;6816;48.506;9.050;2022-11-11T10:42:14;11.10;99.90
13488;DHT22;6816;48.506;9.050;2022-11-11T10:45:38;11.30;99.90
13488;DHT22;6816;48.506;9.050;2022-11-11T10:49:02;11.40;99.90
13488;DHT22;6816;48.506;9.050;2022-11-11T10:52:16;11.70;99.90
13488;DHT22;6816;48.506;9.050;2022-11-11T10:55:19;11.70;99.90
13488;DHT22;6816;48.506;9.050;2022-11-11T10:58:41;11.90;99.90
13488;DHT22;6816;48.506;9.050;2022-11-11T11:01:59;12.00;99.90
13488;DHT22;6816;48.506;9.050;2022-11-11T11:05:08;12.10;99.90
13488;DHT22;6816;48.506;9.050;2022-11-11T11:08:16;12.20;99.90
13488;DHT22;6816;48.506;9.050;2022-11-11T11:11:35;12.40;99.90
13488;DHT22;6816;48.506;9.050;2022-11-11T11:14:43;12.60;99.90
13488;DHT22;6816;48.506;9.050;2022-11-11T11:18:25;12.80;99.90
13488;DHT22;6816;48.506;9.050;2022-11-11T11:21:19;13.00;99.90
13488;DHT22;6816;48.506;9.050;2022-11-11T11:24:31;13.20;99.90
13488;DHT22;6816;48.506;9.050;2022-11-11T11:27:32;13.40;99.90
13488;DHT22;6816;48.506;9.050;2022-11-11T11:30:33;13.50;99.90
13488;DHT22;6816;48.506;9.050;2022-11-11T11:33:54;13.70;99.90
13488;DHT22;6816;48.506;9.050;2022-11-11T11:36:59;13.90;99.90
13488;DHT22;6816;48.506;9.050;2022-11-11T11:40:03;14.10;99.90
13488;DHT22;6816;48.506;9.050;2022-11-11T11:46:41;14.40;99.90
13488;DHT22;6816;48.506;9.050;2022-11-11T11:59:47;14.80;99.90
13488;DHT22;6816;48.506;9.050;2022-11-11T12:10:19;14.90;99.90
13488;DHT22;6816;48.506;9.050;2022-11-11T12:16:53;15.00;99.90
13488;DHT22;6816;48.506;9.050;2022-11-11T12:20:20;15.10;99.90
13488;DHT22;6816;48.506;9.050;2022-11-11T12:26:36;15.20;99.90
13488;DHT22;6816;48.506;9.050;2022-11-11T12:36:40;15.30;99.90
13488;DHT22;6816;48.506;9.050;2022-11-11T12:43:11;15.40;99.90
13488;DHT22;6816;48.506;9.050;2022-11-11T12:53:16;15.40;99.90
13488;DHT22;6816;48.506;9.050;2022-11-11T12:56:33;15.40;99.90
13488;DHT22;6816;48.506;9.050;2022-11-11T12:59:55;15.40;99.90
13488;DHT22;6816;48.506;9.050;2022-11-11T13:13:02;15.30;99.90
13488;DHT22;6816;48.506;9.050;2022-11-11T13:16:08;15.30;99.90
13488;DHT22;6816;48.506;9.050;2022-11-11T13:19:27;15.30;99.90
13488;DHT22;6816;48.506;9.050;2022-11-11T13:22:30;15.40;99.90
13488;DHT22;6816;48.506;9.050;2022-11-11T13:25:33;15.40;99.90
13488;DHT22;6816;48.506;9.050;2022-11-11T13:28:38;15.30;99.90
13488;DHT22;6816;48.506;9.050;2022-11-11T13:31:41;15.40;99.90
13488;DHT22;6816;48.506;9.050;2022-11-11T13:34:43;15.40;99.90
13488;DHT22;6816;48.506;9.050;2022-11-11T13:37:44;15.40;99.90
13488;DHT22;6816;48.506;9.050;2022-11-11T13:40:46;15.40;99.90
13488;DHT22;6816;48.506;9.050;2022-11-11T13:43:49;15.40;99.90
13488;DHT22;6816;48.506;9.050;2022-11-11T13:46:51;15.40;99.90
13488;DHT22;6816;48.506;9.050;2022-11-11T13:50:05;15.30;99.90
13488;DHT22;6816;48.506;9.050;2022-11-11T13:53:15;15.30;99.90
13488;DHT22;6816;48.506;9.050;2022-11-11T13:56:28;15.30;99.90
13488;DHT22;6816;48.506;9.050;2022-11-11T13:59:37;15.30;99.90
13488;DHT22;6816;48.506;9.050;2022-11-11T14:02:38;15.30;99.90
13488;DHT22;6816;48.506;9.050;2022-11-11T14:05:39;15.20;99.90
13488;DHT22;6816;48.506;9.050;2022-11-11T14:08:51;15.30;99.90
13488;DHT22;6816;48.506;9.050;2022-11-11T14:12:21;15.20;99.90
13488;DHT22;6816;48.506;9.050;2022-11-11T14:18:37;15.10;99.90
13488;DHT22;6816;48.506;9.050;2022-11-11T14:24:50;15.10;99.90
13488;DHT22;6816;48.506;9.050;2022-11-11T14:27:50;15.00;99.90
13488;DHT22;6816;48.506;9.050;2022-11-11T14:30:52;15.00;99.90
13488;DHT22;6816;48.506;9.050;2022-11-11T14:34:19;15.00;99.90
13488;DHT22;6816;48.506;9.050;2022-11-11T14:38:06;14.90;99.90
13488;DHT22;6816;48.506;9.050;2022-11-11T14:44:52;14.90;99.90
13488;DHT22;6816;48.506;9.050;2022-11-11T14:47:52;14.80;99.90
13488;DHT22;6816;48.506;9.050;2022-11-11T14:50:55;14.80;99.90
13488;DHT22;6816;48.506;9.050;2022-11-11T14:53:56;14.70;99.90
13488;DHT22;6816;48.506;9.050;2022-11-11T14:57:06;14.70;99.90
13488;DHT22;6816;48.506;9.050;2022-11-11T15:03:18;14.60;99.90
13488;DHT22;6816;48.506;9.050;2022-11-11T15:06:22;14.50;99.90
13488;DHT22;6816;48.506;9.050;2022-11-11T15:10:07;14.40;99.90
13488;DHT22;6816;48.506;9.050;2022-11-11T15:16:54;14.30;99.90
13488;DHT22;6816;48.506;9.050;2022-11-11T15:26:42;13.90;99.90
13488;DHT22;6816;48.506;9.050;2022-11-11T15:39:19;13.40;99.90
13488;DHT22;6816;48.506;9.050;2022-11-11T15:45:33;13.10;99.90
13488;DHT22;6816;48.506;9.050;2022-11-11T15:48:41;13.00;99.90
13488;DHT22;6816;48.506;9.050;2022-11-11T15:51:42;12.90;99.90
13488;DHT22;6816;48.506;9.050;2022-11-11T15:54:43;12.70;99.90
13488;DHT22;6816;48.506;9.050;2022-11-11T15:57:43;12.60;99.90
13488;DHT22;6816;48.506;9.050;2022-11-11T16:00:44;12.50;99.90
13488;DHT22;6816;48.506;9.050;2022-11-11T16:03:46;12.40;99.90
13488;DHT22;6816;48.506;9.050;2022-11-11T16:06:47;12.20;99.90
13488;DHT22;6816;48.506;9.050;2022-11-11T16:09:48;12.10;99.90
13488;DHT22;6816;48.506;9.050;2022-11-11T16:13:13;12.00;99.90
13488;DHT22;6816;48.506;9.050;2022-11-11T16:16:21;11.90;99.90
13488;DHT22;6816;48.506;9.050;2022-11-11T16:19:35;11.80;99.90
13488;DHT22;6816;48.506;9.050;2022-11-11T16:22:38;11.70;99.90
13488;DHT22;6816;48.506;9.050;2022-11-11T16:25:39;11.60;99.90
13488;DHT22;6816;48.506;9.050;2022-11-11T16:28:59;11.50;99.90
13488;DHT22;6816;48.506;9.050;2022-11-11T16:31:59;11.40;99.90
13488;DHT22;6816;48.506;9.050;2022-11-11T16:35:00;11.30;99.90
13488;DHT22;6816;48.506;9.050;2022-11-11T16:38:01;11.30;99.90
13488;DHT22;6816;48.506;9.050;2022-11-11T16:50:33;10.80;99.90
13488;DHT22;6816;48.506;9.050;2022-11-11T16:53:56;10.80;99.90
13488;DHT22;6816;48.506;9.050;2022-11-11T16:57:07;10.70;99.90
13488;DHT22;6816;48.506;9.050;2022-11-11T17:00:12;10.60;99.90
13488;DHT22;6816;48.506;9.050;2022-11-11T17:03:19;10.50;99.90
13488;DHT22;6816;48.506;9.050;2022-11-11T17:06:45;10.40;99.90
13488;DHT22;6816;48.506;9.050;2022-11-11T17:09:46;10.40;99.90
13488;DHT22;6816;48.506;9.050;2022-11-11T17:12:47;10.30;99.90
13488;DHT22;6816;48.506;9.050;2022-11-11T17:15:56;10.20;99.90
13488;DHT22;6816;48.506;9.050;2022-11-11T17:19:01;10.20;99.90
13488;DHT22;6816;48.506;9.050;2022-11-11T17:22:09;10.10;99.90
13488;DHT22;6816;48.506;9.050;2022-11-11T17:25:10;10.10;99.90
13488;DHT22;6816;48.506;9.050;2022-11-11T17:28:11;10.00;99.90
13488;DHT22;6816;48.506;9.050;2022-11-11T17:31:12;10.00;99.90
13488;DHT22;6816;48.506;9.050;2022-11-11T17:34:12;9.90;99.90
13488;DHT22;6816;48.506;9.050;2022-11-11T17:37:13;9.90;99.90
13488;DHT22;6816;48.506;9.050;2022-11-11T17:40:14;9.80;99.90
13488;DHT22;6816;48.506;9.050;2022-11-11T17:43:15;9.70;99.90
13488;DHT22;6816;48.506;9.050;2022-11-11T17:46:15;9.70;99.90
13488;DHT22;6816;48.506;9.050;2022-11-11T17:49:16;9.60;99.90
13488;DHT22;6816;48.506;9.050;2022-11-11T17:52:17;9.50;99.90
13488;DHT22;6816;48.506;9.050;2022-11-11T17:55:18;9.50;99.90
13488;DHT22;6816;48.506;9.050;2022-11-11T17:58:18;9.40;99.90
13488;DHT22;6816;48.506;9.050;2022-11-11T18:01:19;9.30;99.90
13488;DHT22;6816;48.506;9.050;2022-11-11T18:04:20;9.30;99.90
13488;DHT22;6816;48.506;9.050;2022-11-11T18:07:21;9.20;99.90
13488;DHT22;6816;48.506;9.050;2022-11-11T18:10:21;9.20;99.90
13488;DHT22;6816;48.506;9.050;2022-11-11T18:13:22;9.10;99.90
13488;DHT22;6816;48.506;9.050;2022-11-11T18:16:23;9.00;99.90
13488;DHT22;6816;48.506;9.050;2022-11-11T18:19:23;9.00;99.90
13488;DHT22;6816;48.506;9.050;2022-11-11T18:22:24;8.90;99.90
13488;DHT22;6816;48.506;9.050;2022-11-11T18:25:25;8.80;99.90
13488;DHT22;6816;48.506;9.050;2022-11-11T18:28:34;8.80;99.90
13488;DHT22;6816;48.506;9.050;2022-11-11T18:31:35;8.70;99.90
13488;DHT22;6816;48.506;9.050;2022-11-11T18:34:36;8.60;99.90
13488;DHT22;6816;48.506;9.050;2022-11-11T18:37:37;8.60;99.90
13488;DHT22;6816;48.506;9.050;2022-11-11T18:40:37;8.50;99.90
13488;DHT22;6816;48.506;9.050;2022-11-11T18:43:43;8.40;99.90
13488;DHT22;6816;48.506;9.050;2022-11-11T18:46:44;8.40;99.90
13488;DHT22;6816;48.506;9.050;2022-11-11T18:49:45;8.40;99.90
13488;DHT22;6816;48.506;9.050;2022-11-11T18:52:46;8.30;99.90
13488;DHT22;6816;48.506;9.050;2022-11-11T18:55:46;8.20;99.90
13488;DHT22;6816;48.506;9.050;2022-11-11T18:58:49;8.10;99.90
13488;DHT22;6816;48.506;9.050;2022-11-11T19:01:50;8.10;99.90
13488;DHT22;6816;48.506;9.050;2022-11-11T19:04:50;8.00;99.90
13488;DHT22;6816;48.506;9.050;2022-11-11T19:07:51;7.90;99.90
13488;DHT22;6816;48.506;9.050;2022-11-11T19:10:52;7.90;99.90
13488;DHT22;6816;48.506;9.050;2022-11-11T19:13:53;7.80;99.90
13488;DHT22;6816;48.506;9.050;2022-11-11T19:16:54;7.70;99.90
13488;DHT22;6816;48.506;9.050;2022-11-11T19:19:54;7.70;99.90
13488;DHT22;6816;48.506;9.050;2022-11-11T19:22:55;7.70;99.90
13488;DHT22;6816;48.506;9.050;2022-11-11T19:25:59;7.60;99.90
13488;DHT22;6816;48.506;9.050;2022-11-11T19:29:00;7.60;99.90
13488;DHT22;6816;48.506;9.050;2022-11-11T19:32:02;7.50;99.90
13488;DHT22;6816;48.506;9.050;2022-11-11T19:35:03;7.50;99.90
13488;DHT22;6816;48.506;9.050;2022-11-11T19:38:04;7.40;99.90
13488;DHT22;6816;48.506;9.050;2022-11-11T19:41:10;7.40;99.90
13488;DHT22;6816;48.506;9.050;2022-11-11T19:44:11;7.40;99.90
13488;DHT22;6816;48.506;9.050;2022-11-11T19:47:12;7.40;99.90
13488;DHT22;6816;48.506;9.050;2022-11-11T19:50:14;7.30;99.90
13488;DHT22;6816;48.506;9.050;2022-11-11T19:53:14;7.30;99.90
13488;DHT22;6816;48.506;9.050;2022-11-11T19:56:18;7.30;99.90
13488;DHT22;6816;48.506;9.050;2022-11-11T19:59:19;7.30;99.90
13488;DHT22;6816;48.506;9.050;2022-11-11T20:02:21;7.20;99.90
13488;DHT22;6816;48.506;9.050;2022-11-11T20:05:22;7.20;99.90
13488;DHT22;6816;48.506;9.050;2022-11-11T20:08:23;7.10;99.90
13488;DHT22;6816;48.506;9.050;2022-11-11T20:11:24;7.00;99.90
13488;DHT22;6816;48.506;9.050;2022-11-11T20:14:26;7.00;99.90
13488;DHT22;6816;48.506;9.050;2022-11-11T20:17:27;7.00;99.90
13488;DHT22;6816;48.506;9.050;2022-11-11T20:20:28;7.10;99.90
13488;DHT22;6816;48.506;9.050;2022-11-11T20:23:29;7.00;99.90
13488;DHT22;6816;48.506;9.050;2022-11-11T20:26:30;7.00;99.90
13488;DHT22;6816;48.506;9.050;2022-11-11T20:29:30;7.00;99.90
13488;DHT22;6816;48.506;9.050;2022-11-11T20:32:31;7.00;99.90
13488;DHT22;6816;48.506;9.050;2022-11-11T20:35:32;7.00;99.90
13488;DHT22;6816;48.506;9.050;2022-11-11T20:38:33;7.00;99.90
13488;DHT22;6816;48.506;9.050;2022-11-11T20:41:33;7.00;99.90
13488;DHT22;6816;48.506;9.050;2022-11-11T20:44:35;7.10;99.90
13488;DHT22;6816;48.506;9.050;2022-11-11T20:47:36;7.10;99.90
13488;DHT22;6816;48.506;9.050;2022-11-11T20:50:36;7.10;99.90
13488;DHT22;6816;48.506;9.050;2022-11-11T20:53:37;7.10;99.90
13488;DHT22;6816;48.506;9.050;2022-11-11T20:56:38;7.20;99.90
13488;DHT22;6816;48.506;9.050;2022-11-11T20:59:38;7.20;99.90
13488;DHT22;6816;48.506;9.050;2022-11-11T21:02:39;7.20;99.90
13488;DHT22;6816;48.506;9.050;2022-11-11T21:05:40;7.40;99.90
13488;DHT22;6816;48.506;9.050;2022-11-11T21:08:42;7.30;99.90
13488;DHT22;6816;48.506;9.050;2022-11-11T21:11:43;7.30;99.90
13488;DHT22;6816;48.506;9.050;2022-11-11T21:14:43;7.30;99.90
13488;DHT22;6816;48.506;9.050;2022-11-11T21:17:46;7.40;99.90
13488;DHT22;6816;48.506;9.050;2022-11-11T21:20:47;7.40;99.90
13488;DHT22;6816;48.506;9.050;2022-11-11T21:23:48;7.40;99.90
13488;DHT22;6816;48.506;9.050;2022-11-11T21:26:53;7.40;99.90
13488;DHT22;6816;48.506;9.050;2022-11-11T21:29:54;7.40;99.90
13488;DHT22;6816;48.506;9.050;2022-11-11T21:32:54;7.50;99.90
13488;DHT22;6816;48.506;9.050;2022-11-11T21:36:07;7.50;99.90
13488;DHT22;6816;48.506;9.050;2022-11-11T21:39:08;7.60;99.90
13488;DHT22;6816;48.506;9.050;2022-11-11T21:42:09;7.70;99.90
13488;DHT22;6816;48.506;9.050;2022-11-11T21:45:10;7.70;99.90
13488;DHT22;6816;48.506;9.050;2022-11-11T21:48:10;7.80;99.90
13488;DHT22;6816;48.506;9.050;2022-11-11T21:51:20;7.80;99.90
13488;DHT22;6816;48.506;9.050;2022-11-11T21:54:22;7.90;99.90